Union, Missouri
Current Conditions -  °F | °C
As of 8:35 PM on Wednesday 26 Nov 2014 (Local Time) from KFYG Reporting Station
Light Rain Light Rain  
Wind Chill: 28°   Ceiling: 2900
Heat Index: 36°   Visibility: 10mi
Dew Point: 32°   Wind: 12mph
Humidity: 87%   Direction: 300°WNW
Pressure: 30.1"   Gusts: 17mph
Location:  38.45°N, 91.01°W
Report Text: KFYG 270235Z AUTO 30010G15KT 10SM -RA SCT015 BKN029 02/00 A3010 RMK AO2
Loading
Personal Weather Stations






























Interactive Weather Map New forecast layout! Learn more

10-Day Weather Forecast

Advertisements
Track Severe Weather on mobile